createdAt,value
2017-07-11T14:45:08.685Z,53.04
2017-07-11T14:47:37.089Z,52.05
2017-07-11T14:50:05.510Z,51.78
2017-07-11T14:52:33.906Z,51.90
2017-07-11T14:55:02.697Z,52.52
2017-07-11T14:57:31.804Z,52.31
2017-07-11T15:00:00.485Z,53.67
2017-07-11T15:02:29.276Z,54.48
2017-07-11T15:04:58.879Z,54.07
2017-07-11T15:07:27.976Z,53.11
2017-07-11T15:09:56.765Z,53.29
2017-07-11T15:12:25.571Z,53.20
2017-07-11T15:14:53.971Z,53.17
2017-07-11T15:17:22.501Z,54.74
2017-07-11T15:19:51.210Z,53.63
2017-07-11T15:22:19.997Z,53.43
2017-07-11T15:24:48.793Z,53.23
2017-07-11T15:27:17.172Z,52.90
2017-07-11T15:29:46.263Z,52.59
2017-07-11T15:32:15.055Z,53.11
2017-07-11T15:34:43.830Z,53.21
2017-07-11T15:37:12.633Z,52.67
2017-07-11T15:39:41.427Z,51.81
2017-07-11T15:42:09.822Z,51.31
2017-07-11T15:44:38.210Z,51.18
2017-07-11T15:47:07.509Z,52.17
2017-07-11T15:49:35.950Z,51.39
2017-07-11T15:52:04.834Z,51.61
2017-07-11T15:54:33.542Z,51.44
2017-07-11T15:57:02.347Z,51.25
2017-07-11T15:59:30.759Z,50.63
2017-07-11T16:01:59.172Z,50.27
2017-07-11T16:04:27.582Z,50.04
2017-07-11T16:06:55.964Z,50.21
2017-07-11T16:09:24.363Z,50.20
2017-07-11T16:11:52.763Z,50.63
2017-07-11T16:14:21.163Z,50.51
2017-07-11T16:16:49.585Z,51.12
2017-07-11T16:19:18.262Z,51.11
2017-07-11T16:21:46.666Z,51.75
2017-07-11T16:24:15.087Z,52.32
2017-07-11T16:26:43.483Z,52.37
2017-07-11T16:29:11.890Z,52.69
2017-07-11T16:31:40.272Z,52.91
2017-07-11T16:34:09.166Z,53.36
2017-07-11T16:36:38.077Z,53.81
2017-07-11T16:39:48.806Z,53.34
2017-07-11T16:42:17.189Z,53.98
2017-07-11T16:44:45.591Z,54.17
2017-07-11T16:47:14.003Z,54.55
2017-07-11T16:49:42.826Z,54.88
2017-07-11T16:52:11.251Z,54.73
2017-07-11T16:54:39.643Z,54.07
2017-07-11T16:57:08.090Z,54.91
2017-07-11T16:59:36.516Z,54.46
2017-07-11T17:02:05.023Z,54.36
2017-07-11T17:04:33.446Z,54.80
2017-07-11T17:07:02.949Z,54.40
2017-07-11T17:09:31.359Z,54.64
2017-07-11T17:11:59.785Z,54.87
2017-07-11T17:14:28.248Z,55.51
2017-07-11T17:16:56.710Z,55.20
2017-07-11T17:19:25.123Z,55.44
2017-07-11T17:21:53.500Z,54.62
2017-07-11T17:24:21.920Z,55.21
2017-07-11T17:26:50.306Z,55.87
2017-07-11T17:29:19.485Z,56.24
2017-07-11T17:31:47.893Z,56.74
2017-07-11T17:34:17.037Z,56.74
2017-07-11T17:36:45.439Z,57.10
2017-07-11T17:39:14.533Z,57.75
2017-07-11T17:41:43.334Z,58.18
2017-07-11T17:44:11.725Z,58.47
2017-07-11T17:46:40.147Z,59.03
2017-07-11T17:49:08.543Z,58.98
2017-07-11T17:51:37.250Z,59.62
2017-07-11T17:54:06.034Z,60.36
2017-07-11T17:56:35.227Z,60.33
2017-07-11T17:59:04.025Z,60.43
2017-07-11T18:01:33.103Z,60.70
2017-07-11T18:04:01.518Z,60.50
2017-07-11T18:06:29.926Z,60.67
2017-07-11T18:08:58.321Z,60.87
2017-07-11T18:11:26.713Z,61.19
2017-07-11T18:13:55.639Z,61.36
2017-07-11T18:16:24.431Z,61.71
2017-07-11T18:18:53.226Z,62.12
2017-07-11T18:21:22.656Z,62.30
2017-07-11T18:23:51.050Z,62.62
2017-07-11T18:26:19.449Z,63.32
2017-07-11T18:28:47.848Z,63.78
2017-07-11T18:31:16.663Z,64.15
2017-07-11T18:33:45.079Z,64.89
2017-07-11T18:36:13.701Z,65.03
2017-07-11T18:38:42.498Z,65.41
2017-07-11T18:41:11.293Z,65.95
2017-07-11T18:43:40.663Z,66.11
2017-07-11T18:46:09.079Z,65.92
2017-07-11T18:48:37.771Z,65.80
2017-07-11T18:51:06.161Z,65.95
2017-07-11T18:53:34.585Z,65.94
2017-07-11T18:56:02.987Z,66.44
2017-07-11T18:58:31.402Z,66.80
2017-07-11T19:00:59.793Z,67.05
2017-07-11T19:03:28.345Z,67.21
2017-07-11T19:05:57.130Z,66.97
2017-07-11T19:08:25.935Z,67.08
2017-07-11T19:10:54.350Z,67.23
2017-07-11T19:13:22.749Z,67.17
2017-07-11T19:15:51.149Z,67.80
2017-07-11T19:18:19.555Z,68.00
2017-07-11T19:20:47.970Z,68.57
2017-07-11T19:23:16.357Z,68.80
2017-07-11T19:25:44.946Z,68.81
2017-07-11T19:28:13.673Z,69.36
2017-07-11T19:30:42.670Z,70.02
2017-07-11T19:33:12.485Z,69.80
2017-07-11T19:35:42.074Z,69.84
2017-07-11T19:38:10.789Z,69.60
2017-07-11T19:40:39.178Z,69.65
2017-07-11T19:43:07.595Z,67.30
2017-07-11T19:45:35.994Z,66.13
2017-07-11T19:48:04.734Z,65.15
2017-07-11T19:50:33.121Z,64.02
2017-07-11T19:53:02.438Z,63.99
2017-07-11T19:55:31.310Z,63.25
2017-07-11T19:57:59.705Z,63.06
2017-07-11T20:00:29.010Z,63.13
2017-07-11T20:02:57.402Z,63.93
2017-07-11T20:05:25.810Z,64.00
2017-07-11T20:07:54.211Z,63.71
2017-07-11T20:10:22.990Z,63.87
2017-07-11T20:12:51.792Z,64.22
2017-07-11T20:15:20.228Z,64.05
2017-07-11T20:17:48.654Z,64.32
2017-07-11T20:20:17.785Z,64.34
2017-07-11T20:22:46.204Z,64.84
2017-07-11T20:25:14.649Z,64.43
2017-07-11T20:27:44.074Z,64.37
2017-07-11T20:30:12.798Z,65.12
2017-07-11T20:32:41.611Z,65.34
2017-07-11T20:35:10.273Z,65.42
2017-07-11T20:37:39.374Z,65.65
2017-07-11T20:40:08.187Z,66.30
2017-07-11T20:42:37.005Z,66.92
2017-07-11T20:45:05.394Z,67.88
2017-07-11T20:47:33.796Z,68.84
2017-07-11T20:50:02.194Z,69.18
2017-07-11T20:52:30.611Z,69.76
2017-07-11T20:54:59.001Z,70.08
2017-07-11T20:57:27.656Z,69.58
2017-07-11T20:59:56.422Z,69.62
2017-07-11T21:02:24.823Z,69.54
2017-07-11T21:04:53.319Z,68.90
2017-07-11T21:07:21.973Z,68.47
2017-07-11T21:09:50.784Z,68.36
2017-07-11T21:12:19.184Z,68.80
2017-07-11T21:14:47.584Z,69.05
2017-07-11T21:17:15.973Z,69.58
2017-07-11T21:19:44.692Z,69.49
2017-07-11T21:22:13.477Z,69.81
2017-07-11T21:24:42.273Z,70.19
2017-07-11T21:27:10.674Z,69.99
2017-07-11T21:29:39.087Z,70.59
2017-07-11T21:32:07.542Z,71.09
2017-07-11T21:34:35.945Z,71.06
2017-07-11T21:37:04.359Z,71.49
2017-07-11T21:39:33.470Z,72.07
2017-07-11T21:42:02.272Z,72.38
2017-07-11T21:44:30.661Z,73.01
2017-07-11T21:46:59.326Z,73.21
2017-07-11T21:49:28.109Z,73.46
2017-07-11T21:51:57.510Z,73.83
2017-07-11T21:54:27.276Z,73.42
2017-07-11T21:56:55.684Z,73.26
2017-07-11T21:59:24.076Z,73.11
2017-07-11T22:01:53.186Z,72.92
2017-07-11T22:04:21.964Z,73.22
2017-07-11T22:06:50.957Z,73.39
2017-07-11T22:09:19.740Z,73.91
2017-07-11T22:11:48.440Z,74.26
2017-07-11T22:14:16.853Z,74.07
2017-07-11T22:16:45.246Z,74.40
2017-07-11T22:19:13.877Z,74.69
2017-07-11T22:21:42.757Z,75.26
2017-07-11T22:24:11.199Z,75.25
2017-07-11T22:26:40.526Z,74.28
2017-07-11T22:29:09.252Z,73.28
2017-07-11T22:31:38.037Z,73.64
2017-07-11T22:34:07.846Z,73.34
2017-07-11T22:36:36.631Z,72.93
2017-07-11T22:39:05.739Z,72.34
2017-07-11T22:41:34.408Z,72.63
2017-07-11T22:44:02.810Z,72.68
2017-07-11T22:46:31.494Z,72.31
2017-07-11T22:49:00.469Z,71.98
2017-07-11T22:51:28.866Z,71.58
2017-07-11T22:53:57.651Z,70.60
2017-07-11T22:56:27.058Z,72.65
2017-07-11T22:58:55.845Z,72.94
2017-07-11T23:01:24.635Z,72.83
2017-07-11T23:03:53.628Z,75.35
2017-07-11T23:06:22.422Z,75.58
2017-07-11T23:08:51.209Z,74.55
2017-07-11T23:11:20.606Z,74.35
2017-07-11T23:13:49.773Z,75.91
2017-07-11T23:16:18.166Z,76.59
2017-07-11T23:18:46.757Z,78.23
2017-07-11T23:21:15.154Z,78.83
2017-07-11T23:23:43.959Z,81.02
2017-07-11T23:26:12.379Z,81.08
2017-07-11T23:28:40.994Z,82.07
2017-07-11T23:31:09.782Z,82.75
2017-07-11T23:33:38.577Z,83.47
2017-07-11T23:36:07.391Z,83.58
2017-07-11T23:38:36.069Z,83.99
2017-07-11T23:41:04.525Z,84.74
2017-07-11T23:43:33.325Z,84.33
2017-07-11T23:46:02.322Z,84.54
2017-07-11T23:48:31.893Z,85.22
2017-07-11T23:51:00.275Z,85.44
2017-07-11T23:53:28.686Z,86.04
2017-07-11T23:55:57.486Z,86.07
2017-07-11T23:58:26.587Z,85.98
